• Join FlightAware (Why Join?)
  • Login
  • US Flag 
09:13PM EDT


 

Airport Tracker/Info


-or-


 

Live Flight TrackerFlight Track Log ✈ UAL117 ✈ 28-Feb-2012 ✈ KEWR - VHHH / HKG

Flight Track Log - Related Links

Times and Time Zones

All times are in EST time to prevent confusion due to time zone crossing. See the UAL117 flight status page for this flight to view local times or setup timezone preferences in your user account.

Time Position Orientation Groundspeed Altitude Reporting Facility
EST Latitude Longitude Course Direction KTS MPH feet Rate Location/Type
03:44PM 40.7333 -74.1167 27° Northeast 199 229 2,600  Level New York TRACON
03:45PM 40.7833 -74.0833 62° Northeast 215 247 3,800 1,380 Climbing New York TRACON
03:46PM 40.8191 -73.9928 71° East 277 319 5,500 1,560 Climbing FlightAware ADS-B
03:46PM 40.8242 -73.9734 67° East 285 328 5,800 1,920 Climbing FlightAware ADS-B
03:47PM 40.8578 -73.8707 46° Northeast 290 334 7,900 1,920 Climbing FlightAware ADS-B
03:49PM 40.9275 -73.7753 46° Northeast 286 329 10,500 1,560 Climbing Boston Center
03:50PM 41.0014 -73.6722 47° Northeast 324 373 11,700 1,320 Climbing Boston Center
03:51PM 41.0756 -73.5661 45° Northeast 376 433 13,200 1,500 Climbing Boston Center
03:52PM 41.1536 -73.4628 48° Northeast 390 449 14,700 1,620 Climbing Boston Center
03:53PM 41.2339 -73.3453 46° Northeast 411 473 16,500 1,680 Climbing Boston Center
03:54PM 41.3181 -73.2278 49° Northeast 422 486 18,100 1,260 Climbing Boston Center
03:55PM 41.4003 -73.1014 60° Northeast 428 493 19,100 1,080 Climbing Boston Center
03:56PM 41.4656 -72.9525 60° Northeast 449 517 20,300 1,200 Climbing Boston Center
03:57PM 41.5308 -72.8006 64° Northeast 461 531 21,600 1,320 Climbing Boston Center
03:58PM 41.5853 -72.6511 73° East 474 545 23,000 1,200 Climbing Boston Center
03:59PM 41.6272 -72.4706 72° East 486 559 24,000 960 Climbing Boston Center
04:00PM 41.6708 -72.2872 69° East 504 580 25,000 960 Climbing Boston Center
04:01PM 41.7225 -72.1064 29° Northeast 514 592 26,000 900 Climbing Boston Center
04:02PM 41.8347 -72.0222 22° Northeast 454 522 26,800 840 Climbing Boston Center
04:03PM 41.9556 -71.9572 29° Northeast 445 512 27,700 840 Climbing Boston Center
04:04PM 42.0739 -71.8694 29° Northeast 457 526 28,500 660 Climbing Boston Center
04:05PM 42.1922 -71.7817 28° Northeast 478 550 29,100 660 Climbing Boston Center
04:06PM 42.3167 -71.6906 29° Northeast 484 557 29,900 900 Climbing Boston Center
04:07PM 42.4369 -71.6017 28° Northeast 490 564 31,000 480 Climbing Boston Center
04:08PM 42.5736 -71.5042 28° Northeast 495 570 30,900  Descending Boston Center
04:09PM 42.6939 -71.4175 29° Northeast 495 570 31,000  Climbing Boston Center
04:10PM 42.8139 -71.3250 30° Northeast 495 570 31,000 -60 Level Boston Center
04:11PM 42.9192 -71.2436 29° Northeast 495 570 30,900  Descending Boston Center
04:12PM 43.0392 -71.1533 29° Northeast 495 570 31,000  Climbing Boston Center
04:13PM 43.1611 -71.0597 29° Northeast 495 570 30,900  Descending Boston Center
04:14PM 43.2786 -70.9686 29° Northeast 495 570 31,000  Climbing Boston Center
04:15PM 43.3964 -70.8772 29° Northeast 495 570 31,000  Level Boston Center
04:16PM 43.5139 -70.7881 31° Northeast 484 557 31,000 -60 Level Boston Center
04:17PM 43.6292 -70.6933 29° Northeast 479 551 30,900  Descending Boston Center
04:18PM 43.7403 -70.6094 29° Northeast 466 536 31,000  Climbing Boston Center
04:19PM 43.8536 -70.5225 29° Northeast 466 536 31,000  Level Boston Center
04:20PM 43.9686 -70.4325 30° Northeast 466 536 31,000  Level Boston Center
04:21PM 44.0839 -70.3417 29° Northeast 466 536 31,000  Level Boston Center
04:22PM 44.2008 -70.2508 30° Northeast 466 536 31,000  Level Boston Center
04:23PM 44.3158 -70.1567 29° Northeast 472 543 31,000  Level Boston Center
04:24PM 44.4286 -70.0678 30° Northeast 467 537 31,000  Level Boston Center
04:25PM 44.5453 -69.9728 30° Northeast 467 537 31,000  Level Boston Center
04:26PM 44.6600 -69.8806 30° Northeast 467 537 31,000  Level Boston Center
04:27PM 44.7869 -69.7783 30° Northeast 467 537 31,000  Level Boston Center
04:28PM 44.8994 -69.6856 30° Northeast 467 537 31,000  Level Boston Center
04:29PM 45.0158 -69.5919 29° Northeast 472 543 31,000  Level Boston Center
04:30PM 45.1303 -69.5008 31° Northeast 472 543 31,000  Level Boston Center
04:31PM 45.2444 -69.4036 30° Northeast 467 537 31,000  Level Boston Center
04:32PM 45.3464 -69.3214 31° Northeast 467 537 31,000  Level Boston Center
04:33PM 45.4625 -69.2233 30° Northeast 472 543 31,000  Level Boston Center
04:34PM 45.5764 -69.1281 30° Northeast 472 543 31,000  Level Boston Center
04:35PM 45.6925 -69.0322 31° Northeast 472 543 31,000 -60 Level Boston Center
04:36PM 45.8083 -68.9331 31° Northeast 472 543 30,900 -60 Descending Boston Center
04:37PM 45.9219 -68.8364 31° Northeast 472 543 30,900  Level Boston Center
04:38PM 46.0356 -68.7394 31° Northeast 472 543 31,000  Climbing Boston Center
04:39PM 46.1511 -68.6392 30° Northeast 472 543 31,000  Level Boston Center
04:40PM 46.2667 -68.5411 30° Northeast 472 543 31,000  Level Boston Center
04:41PM 46.3819 -68.4431 31° Northeast 472 543 31,000  Level Boston Center
04:42PM 46.4972 -68.3411 30° Northeast 472 543 31,000  Level Boston Center
04:43PM 46.6103 -68.2453 32° Northeast 472 543 31,000  Level Boston Center
04:44PM 46.7253 -68.1397 23° Northeast 472 543 31,000  Level Boston Center
04:45PM 46.8475 -68.0636 19° North 472 543 31,000  Level Boston Center
04:46PM 46.9803 -67.9953 19° North 472 543 31,000  Level Boston Center
04:47PM 47.0947 -67.9372 21° North 466 536 31,000  Level Boston Center
04:48PM 47.2167 -67.8667 19° North 480 552 31,000  Level Moncton Center
04:49PM 47.3500 -67.8000 21° North 470 541 31,000  Level Moncton Center
04:50PM 47.4667 -67.7333 11° North 470 541 31,000  Level Moncton Center
04:51PM 47.5833 -67.7000 30° Northeast 480 552 31,000  Level Moncton Center
04:52PM 47.7000 -67.6000 10° North 480 552 31,000  Level Moncton Center
04:53PM 47.8333 -67.5667 19° North 470 541 31,000  Level Moncton Center
04:54PM 47.9667 -67.5000 21° North 480 552 31,000  Level Moncton Center
04:55PM 48.0833 -67.4333 18° North 470 541 31,000  Level Moncton Center
04:56PM 48.2167 -67.3667 21° North 480 552 31,000  Level Moncton Center
04:57PM 48.3333 -67.3000 18° North 480 552 31,000  Level Moncton Center
04:58PM 48.4667 -67.2333 25° Northeast 480 552 31,000  Level Moncton Center
04:59PM 48.5833 -67.1500 21° North 480 552 31,000  Level Moncton Center
05:00PM 48.7000 -67.0833 16° North 480 552 31,000 240 Level Moncton Center
05:01PM 48.8500 -67.0167 16° North 480 552 31,500 660 Climbing Moncton Center
05:02PM 48.9667 -66.9667 18° North 480 552 32,400 720 Climbing Moncton Center
05:03PM 49.1000 -66.9000 18° North 480 552 33,000 300 Climbing Moncton Center
05:04PM 49.2333 -66.8333 20° North 490 564 33,000  Level Moncton Center
05:05PM 49.3500 -66.7667 22° Northeast 480 552 33,000  Level Moncton Center
05:06PM 49.4833 -66.6833 20° North 480 552 33,000  Level Moncton Center
05:07PM 49.6000 -66.6167 18° North 490 564 33,000  Level Moncton Center
05:08PM 49.7333 -66.5500 25° Northeast 490 564 33,000  Level Moncton Center
05:09PM 49.8500 -66.4667 16° North 490 564 33,000  Level Moncton Center
05:10PM 50.0000 -66.4000 20° North 480 552 33,000  Level Moncton Center
05:11PM 50.1167 -66.3333 22° Northeast 480 552 33,000  Level Moncton Center
05:12PM 50.2500 -66.2500 North 480 552 33,000  Level Moncton Center
05:13PM 50.3667 -66.2333 13° North 480 552 33,000  Level Moncton Center
05:14PM 50.5000 -66.1833 13° North 480 552 33,000  Level Moncton Center
05:15PM 50.6333 -66.1333 13° North 480 552 33,000  Level Moncton Center
05:16PM 50.7667 -66.0833 North 480 552 33,000  Level Moncton Center
05:17PM 50.9000 -66.0500 13° North 480 552 33,000  Level Moncton Center
05:18PM 51.0333 -66.0000 10° North 480 552 33,000  Level Moncton Center
05:19PM 51.1500 -65.9667 12° North 480 552 33,000  Level Moncton Center
05:20PM 51.3000 -65.9167 15° North 480 552 33,000  Level Moncton Center
05:21PM 51.4167 -65.8667 13° North 480 552 33,000  Level Moncton Center
05:22PM 51.5500 -65.8167 12° North 480 552 33,000  Level Moncton Center
05:23PM 51.7000 -65.7667 North 480 552 33,000  Level Moncton Center
05:24PM 51.8333 -65.7500 21° North 480 552 33,000  Level Moncton Center
05:25PM 51.9667 -65.6667 15° North 490 564 33,000  Level Moncton Center
05:26PM 52.0833 -65.6167 17° North 490 564 33,000  Level Moncton Center
05:27PM 52.2167 -65.5500 21° North 490 564 33,000  Level Moncton Center
05:28PM 52.3500 -65.4667 15° North 490 564 33,000  Level Moncton Center
05:29PM 52.4667 -65.4167 21° North 490 564 33,000  Level Moncton Center
05:30PM 52.6000 -65.3333 13° North 490 564 33,000  Level Moncton Center
05:31PM 52.7333 -65.2833 21° North 490 564 33,000  Level Moncton Center
05:32PM 52.8667 -65.2000 23° Northeast 480 552 33,000  Level Moncton Center
05:33PM 52.9833 -65.1167 18° North 500 575 33,000  Level Moncton Center
05:34PM 53.1333 -65.0333 14° North 490 564 33,000  Level Moncton Center
05:35PM 53.2500 -64.9833 20° North 510 587 33,000  Level Moncton Center
05:36PM 53.3833 -64.9000 13° North 500 575 33,000  Level Moncton Center
05:37PM 53.5167 -64.8500 20° North 510 587 33,000  Level Moncton Center
05:38PM 53.6500 -64.7667 20° North 490 564 33,000  Level Moncton Center
05:39PM 53.7833 -64.6833 16° North 510 587 33,000  Level Moncton Center
05:40PM 53.9167 -64.6167 20° North 490 564 33,000  Level Moncton Center
05:41PM 54.0500 -64.5333 23° Northeast 500 575 33,000  Level Moncton Center
05:42PM 54.1667 -64.4500 11° North 490 564 33,000  Level Moncton Center
05:43PM 54.3167 -64.4000 23° Northeast 500 575 33,000  Level Moncton Center
05:44PM 54.4333 -64.3167 16° North 500 575 33,000  Level Moncton Center
05:45PM 54.5667 -64.2500 18° North 500 575 33,000  Level Moncton Center
05:46PM 54.7167 -64.1667 22° Northeast 500 575 33,000  Level Moncton Center
05:47PM 54.8333 -64.0833 14° North 490 564 33,000  Level Moncton Center
05:48PM 54.9833 -64.0167 20° North 500 575 33,000  Level Moncton Center
05:49PM 55.1167 -63.9333 18° North 500 575 33,000  Level Moncton Center
05:50PM 55.2333 -63.8667 12° North 500 575 33,000  Level Moncton Center
05:51PM 55.3667 -63.8167 North 500 575 33,000  Level Moncton Center
05:52PM 55.5000 -63.7833 23° Northeast 500 575 33,000  Level Moncton Center
05:53PM 55.6333 -63.6833 North 510 587 33,000  Level Moncton Center
05:54PM 55.7667 -63.6500 19° North 490 564 33,000  Level Moncton Center
05:55PM 55.9000 -63.5667 North 500 575 33,000  Level Moncton Center
05:56PM 56.0333 -63.5333 16° North 490 564 33,000  Level Moncton Center
05:57PM 56.1667 -63.4667 16° North 490 564 33,000  Level Moncton Center
05:58PM 56.3000 -63.4000 17° North 490 564 33,000  Level Moncton Center
05:59PM 56.4833 -63.3000 12° North 490 564 33,000  Level Gander Center
06:00PM 56.6167 -63.2500 17° North 500 575 33,000  Level Gander Center
06:01PM 56.7667 -63.1667 13° North 500 575 33,000  Level Gander Center
06:02PM 56.8833 -63.1167 19° North 500 575 33,000  Level Gander Center
06:03PM 57.0167 -63.0333 14° North 490 564 33,000  Level Gander Center
06:04PM 57.1667 -62.9667 11° North 500 575 33,000  Level Gander Center
06:05PM 57.3000 -62.9167 11° North 490 564 33,000  Level Gander Center
06:06PM 57.4333 -62.8667 22° Northeast 490 564 33,000  Level Gander Center
06:07PM 57.5667 -62.7667 11° North 500 575 33,000  Level Gander Center
06:08PM 57.7000 -62.7167 13° North 490 564 33,000  Level Gander Center
06:09PM 57.8167 -62.6667 22° Northeast 500 575 33,000  Level Gander Center
06:10PM 57.9500 -62.5667 11° North 500 575 33,000  Level Gander Center
06:11PM 58.0833 -62.5167 19° North 490 564 33,000  Level Gander Center
06:12PM 58.2333 -62.4167 13° North 490 564 33,000  Level Gander Center
06:13PM 58.3500 -62.3667 15° North 500 575 33,100 540 Climbing Gander Center
06:14PM 58.4833 -62.3000 11° North 490 564 34,100 840 Climbing Gander Center
06:15PM 58.6167 -62.2500 21° North 500 575 34,800 420 Climbing Gander Center
06:16PM 58.7500 -62.1500 14° North 500 575 35,000 60 Climbing Gander Center
06:17PM 58.8833 -62.0833 11° North 500 575 35,000  Level Gander Center
06:18PM 59.0167 -62.0333 21° North 490 564 35,000  Level Gander Center
06:19PM 59.1500 -61.9333 14° North 490 564 35,000  Level Gander Center
06:20PM 59.2833 -61.8667 14° North 500 575 35,000  Level Gander Center
06:21PM 59.4167 -61.8000 20° North 500 575 35,000  Level Gander Center
06:22PM 59.5333 -61.7167 13° North 500 575 35,000  Level Gander Center
06:23PM 59.6833 -61.6500 23° Northeast 500 575 35,000  Level Gander Center
06:24PM 59.8000 -61.5500 16° North 490 564 35,000  Level Gander Center
06:25PM 59.9167 -61.4833 21° North 490 564 35,000  Level Gander Center
06:26PM 60.0500 -61.3833 20° North 500 575 35,000  Level Gander Center
06:27PM 60.1833 -61.2833 24° Northeast 500 575 35,000  Level Gander Center
06:28PM 60.3333 -61.1500 20° North 490 564 35,000  Level Gander Center
06:29PM 60.4667 -61.0500 16° North 500 575 35,000  Level Gander Center
06:30PM 60.5833 -60.9833 23° Northeast 500 575 35,000  Level Gander Center
06:31PM 60.7167 -60.8667 20° North 500 575 35,000  Level Gander Center
06:32PM 60.8500 -60.7667 20° North 500 575 35,000  Level Gander Center
06:33PM 60.9833 -60.6667 20° North 500 575 35,000  Level Gander Center
06:34PM 61.1167 -60.5667 26° Northeast 500 575 35,000  Level Gander Center
06:35PM 61.2333 -60.4500 20° North 500 575 35,000  Level Gander Center
06:36PM 61.3667 -60.3500 23° Northeast 500 575 35,000  Level Gander Center
06:37PM 61.5000 -60.2333 25° Northeast 500 575 35,000  Level Gander Center
06:38PM 61.6000 -60.1333 16° North 500 575 35,000  Level Gander Center
06:39PM 61.7333 -60.0500 19° North 500 575 35,000  Level Gander Center
06:40PM 61.8667 -59.9500 22° Northeast 500 575 35,000  Level Gander Center
06:41PM 62.0000 -59.8333 25° Northeast 500 575 35,000  Level Gander Center
06:42PM 62.1167 -59.7167 19° North 500 575 35,000  Level Gander Center
06:43PM 62.2500 -59.6167 22° Northeast 500 575 35,000  Level Gander Center
06:44PM 62.3833 -59.5000 22° Northeast 500 575 35,000  Level Gander Center
06:45PM 62.5167 -59.3833 22° Northeast 500 575 35,000  Level Gander Center
06:46PM 62.6500 -59.2667 28° Northeast 500 575 35,000  Level Gander Center
06:47PM 62.7500 -59.1500 22° Northeast 500 575 35,000  Level Gander Center
06:48PM 62.8833 -59.0333 16° North 500 575 35,000  Level Gander Center
06:49PM 63.0167 -58.9500 22° Northeast 500 575 35,000  Level Gander Center
06:50PM 63.1500 -58.8333 24° Northeast 500 575 35,000  Level Gander Center
06:51PM 63.2833 -58.7000 24° Northeast 500 575 35,000  Level Gander Center
06:52PM 63.4000 -58.5833 24° Northeast 500 575 35,000  Level Gander Center
06:53PM 63.5167 -58.4667 24° Northeast 500 575 35,000  Level Gander Center
06:54PM 63.6500 -58.3333 21° North 500 575 35,000  Level Gander Center
06:55PM 63.7833 -58.2167 24° Northeast 500 575 35,000  Level Gander Center
06:56PM 63.9167 -58.0833 21° North 500 575 35,000  Level Gander Center
06:57PM 64.0500 -57.9667 26° Northeast 500 575 35,000  Level Gander Center
06:58PM 64.1667 -57.8333 26° Northeast 500 575 35,000  Level Gander Center
06:59PM 64.2833 -57.7000 21° North 500 575 35,000  Level Gander Center
07:00PM 64.4333 -57.5667 26° Northeast 500 575 35,000  Level Gander Center
07:01PM 64.5500 -57.4333 26° Northeast 510 587 35,000  Level Gander Center
07:02PM 64.6667 -57.3000 23° Northeast 500 575 35,000  Level Gander Center
07:03PM 64.8000 -57.1667 15° North 500 575 35,000  Level Gander Center
07:04PM 64.9333 -57.0833 28° Northeast 500 575 35,000  Level Gander Center
07:05PM 65.0500 -56.9333 North 510 587 35,000  Level Gander Center
07:06PM 65.1833 -56.8833 North 500 575 35,000  Level Gander Center
07:07PM 65.3167 -56.8667 10° North 500 575 35,000  Level Gander Center
07:08PM 65.4667 -56.8000 12° North 500 575 35,000  Level Gander Center
07:09PM 65.6000 -56.7333 North 500 575 35,000  Level Gander Center
07:10PM 65.7333 -56.7167 10° North 500 575 35,000  Level Gander Center
07:11PM 65.8833 -56.6500 North 500 575 35,000  Level Gander Center
07:12PM 66.0000 -56.6333 10° North 510 587 35,000  Level Gander Center
07:13PM 66.1500 -56.5667 11° North 510 587 35,000  Level Gander Center
07:14PM 66.2833 -56.5000 North 510 587 35,000  Level Gander Center
07:15PM 66.4167 -56.4667 10° North 510 587 35,000  Level Gander Center
07:16PM 66.5667 -56.4000 North 500 575 35,000  Level Gander Center
07:17PM 66.6833 -56.3833 11° North 500 575 35,000  Level Gander Center
07:18PM 66.8167 -56.3167 10° North 500 575 35,000  Level Gander Center
07:19PM 66.9667 -56.2500 71° East 500 575 35,000  Level Gander Center
07:20PM 67.0000 -56.0000 North 500 575 35,000  Level Edmonton Center
07:21PM 67.1333 -55.9500 10° North 500 575 35,000  Level Edmonton Center
07:22PM 67.2833 -55.8833 15° North 510 587 35,000  Level Edmonton Center
07:23PM 67.4000 -55.8000 10° North 500 575 35,000  Level Edmonton Center
07:24PM 67.5500 -55.7333 North 500 575 35,000  Level Edmonton Center
07:25PM 67.6667 -55.7167 10° North 500 575 35,000  Level Edmonton Center
07:26PM 67.8167 -55.6500 11° North 510 587 35,000  Level Edmonton Center
07:27PM 67.9500 -55.5833 North 500 575 35,000  Level Edmonton Center
07:28PM 68.0833 -55.5333 11° North 500 575 35,000  Level Edmonton Center
07:29PM 68.2167 -55.4667 North 510 587 35,000  Level Edmonton Center
07:30PM 68.3500 -55.4333 10° North 500 575 35,000  Level Edmonton Center
07:31PM 68.4833 -55.3667 North 500 575 35,000  Level Edmonton Center
07:32PM 68.6333 -55.3000 10° North 500 575 35,000  Level Edmonton Center
07:33PM 68.7667 -55.2333 10° North 500 575 35,000  Level Edmonton Center
07:34PM 68.9000 -55.1667 North 500 575 35,000  Level Edmonton Center
07:35PM 69.0333 -55.1333 347° North 500 575 35,000  Level Edmonton Center
07:36PM 69.2667 -55.2833 North 500 575 35,000  Level Gander Center
07:37PM 69.4167 -55.2500 82° East 500 575 35,000  Level Gander Center
07:38PM 69.4333 -54.8833 North 500 575 35,000  Level Edmonton Center
07:39PM 69.5667 -54.8500 12° North 500 575 35,000  Level Edmonton Center
07:40PM 69.7000 -54.7667 10° North 500 575 35,000  Level Edmonton Center
07:41PM 69.8333 -54.7000 12° North 500 575 35,000  Level Edmonton Center
07:42PM 69.9667 -54.6167 341° North 500 575 35,000  Level Edmonton Center
07:43PM 70.2167 -54.8667 North 500 575 35,000  Level Gander Center
07:44PM 70.3500 -54.8333 North 500 575 35,000  Level Gander Center
07:51PM 71.3360 -54.5190 North  Level FlightAware Approximate
07:52PM 71.4693 -54.5147 North  Level FlightAware Approximate
07:53PM 71.6014 -54.4512 North  Level FlightAware Approximate
07:54PM 71.7335 -54.3868 North  Level FlightAware Approximate
07:55PM 71.8656 -54.3215 North  Level FlightAware Approximate
07:56PM 71.9977 -54.2553 North  Level FlightAware Approximate
07:57PM 72.1298 -54.1882 North  Level FlightAware Approximate
07:58PM 72.2618 -54.1200 353° North  Level FlightAware Approximate
07:59PM 72.3899 -54.1720 North  Level FlightAware Approximate
08:00PM 72.5218 -54.1008 North  Level FlightAware Approximate
08:01PM 72.6537 -54.0285 North  Level FlightAware Approximate
08:02PM 72.7856 -53.9552 North  Level FlightAware Approximate
08:03PM 72.9175 -53.8807 North  Level FlightAware Approximate
08:04PM 73.0493 -53.8052 10° North  Level FlightAware Approximate
08:05PM 73.1811 -53.7284 10° North  Level FlightAware Approximate
08:06PM 73.3129 -53.6506 10° North  Level FlightAware Approximate
08:07PM 73.4446 -53.5714 10° North  Level FlightAware Approximate
08:08PM 73.5763 -53.4911 10° North  Level FlightAware Approximate
08:09PM 73.7080 -53.4095 10° North  Level FlightAware Approximate
08:10PM 73.8397 -53.3266 10° North  Level FlightAware Approximate
08:11PM 73.9713 -53.2424 10° North  Level FlightAware Approximate
08:12PM 74.1029 -53.1568 10° North  Level FlightAware Approximate
08:13PM 74.2344 -53.0699 10° North  Level FlightAware Approximate
08:14PM 74.3659 -52.9815 10° North  Level FlightAware Approximate
08:15PM 74.4974 -52.8917 10° North  Level FlightAware Approximate
08:16PM 74.6289 -52.8003 11° North  Level FlightAware Approximate
08:17PM 74.7603 -52.7074 11° North  Level FlightAware Approximate
08:18PM 74.8916 -52.6130 11° North  Level FlightAware Approximate
08:19PM 75.0230 -52.5169 10° North  Level FlightAware Approximate
08:20PM 75.1545 -52.4252 10° North  Level FlightAware Approximate
08:21PM 75.2861 -52.3320 10° North  Level FlightAware Approximate
08:22PM 75.4176 -52.2370 10° North  Level FlightAware Approximate
08:23PM 75.5490 -52.1404 10° North  Level FlightAware Approximate
08:24PM 75.6805 -52.0421 11° North  Level FlightAware Approximate
08:25PM 75.8119 -51.9420 11° North  Level FlightAware Approximate
08:26PM 75.9432 -51.8401 11° North  Level FlightAware Approximate
08:27PM 76.0745 -51.7362 11° North  Level FlightAware Approximate
08:28PM 76.2057 -51.6305 11° North  Level FlightAware Approximate
08:29PM 76.3369 -51.5227 11° North  Level FlightAware Approximate
08:30PM 76.4681 -51.4129 11° North  Level FlightAware Approximate
08:31PM 76.5992 -51.3010 11° North  Level FlightAware Approximate
08:32PM 76.7303 -51.1869 11° North  Level FlightAware Approximate
08:33PM 76.8613 -51.0705 12° North  Level FlightAware Approximate
08:34PM 76.9922 -50.9519 12° North  Level FlightAware Approximate
08:35PM 77.1231 -50.8309 12° North  Level FlightAware Approximate
08:36PM 77.2540 -50.7075 12° North  Level FlightAware Approximate
08:37PM 77.3847 -50.5816 12° North  Level FlightAware Approximate
08:38PM 77.5155 -50.4530 12° North  Level FlightAware Approximate
08:39PM 77.6461 -50.3218 12° North  Level FlightAware Approximate
08:40PM 77.7767 -50.1878 12° North  Level FlightAware Approximate
08:41PM 77.9072 -50.0510 13° North  Level FlightAware Approximate
08:42PM 78.0377 -49.9112 13° North  Level FlightAware Approximate
08:43PM 78.1681 -49.7684 13° North  Level FlightAware Approximate
08:44PM 78.2984 -49.6224 13° North  Level FlightAware Approximate
08:45PM 78.4287 -49.4732 13° North  Level FlightAware Approximate
08:46PM 78.5588 -49.3207 13° North  Level FlightAware Approximate
08:47PM 78.6889 -49.1647 13° North  Level FlightAware Approximate
08:48PM 78.8189 -49.0051 14° North  Level FlightAware Approximate
08:49PM 78.9488 -48.8418 14° North  Level FlightAware Approximate
08:50PM 79.0787 -48.6747 14° North  Level FlightAware Approximate
08:51PM 79.2084 -48.5036 14° North  Level FlightAware Approximate
08:52PM 79.3380 -48.3284 14° North  Level FlightAware Approximate
08:53PM 79.4676 -48.1490 14° North  Level FlightAware Approximate
08:54PM 79.5970 -47.9651 15° North  Level FlightAware Approximate
08:55PM 79.7263 -47.7766 15° North  Level FlightAware Approximate
08:56PM 79.8555 -47.5834 15° North  Level FlightAware Approximate
08:57PM 79.9846 -47.3853 15° North  Level FlightAware Approximate
08:58PM 80.1136 -47.1820 15° North  Level FlightAware Approximate
08:59PM 80.2424 -46.9735 16° North  Level FlightAware Approximate
09:00PM 80.3712 -46.7594 16° North  Level FlightAware Approximate
09:01PM 80.4997 -46.5395 16° North  Level FlightAware Approximate
09:02PM 80.6282 -46.3137 16° North  Level FlightAware Approximate
09:03PM 80.7565 -46.0817 16° North  Level FlightAware Approximate
09:04PM 80.8846 -45.8432 17° North  Level FlightAware Approximate
09:05PM 81.0126 -45.5980 17° North  Level FlightAware Approximate
09:06PM 81.1404 -45.3457 17° North  Level FlightAware Approximate
09:07PM 81.2681 -45.0861 17° North  Level FlightAware Approximate
09:08PM 81.3955 -44.8189 39° Northeast  Level FlightAware Approximate
09:09PM 81.4974 -44.2680 19° North  Level FlightAware Approximate
09:10PM 81.6236 -43.9683 19° North  Level FlightAware Approximate
09:11PM 81.7496 -43.6596 20° North  Level FlightAware Approximate
09:12PM 81.8754 -43.3413 20° North  Level FlightAware Approximate
09:13PM 82.0009 -43.0131 20° North  Level FlightAware Approximate
09:14PM 82.1261 -42.6745 21° North  Level FlightAware Approximate
09:15PM 82.2511 -42.3251 21° North  Level FlightAware Approximate
09:16PM 82.3757 -41.9643 21° North  Level FlightAware Approximate
09:17PM 82.5001 -41.5916 22° Northeast  Level FlightAware Approximate
09:18PM 82.6241 -41.2064 22° Northeast  Level FlightAware Approximate
09:19PM 82.7478 -40.8081 22° Northeast  Level FlightAware Approximate
09:20PM 82.8711 -40.3961 23° Northeast  Level FlightAware Approximate
09:21PM 82.9941 -39.9697 23° Northeast  Level FlightAware Approximate
09:22PM 83.1166 -39.5282 24° Northeast  Level FlightAware Approximate
09:23PM 83.2387 -39.0708 24° Northeast  Level FlightAware Approximate
09:24PM 83.3604 -38.5966 25° Northeast  Level FlightAware Approximate
09:25PM 83.4817 -38.1049 25° Northeast  Level FlightAware Approximate
09:26PM 83.6024 -37.5946 26° Northeast  Level FlightAware Approximate
09:27PM 83.7226 -37.0648 26° Northeast  Level FlightAware Approximate
09:28PM 83.8422 -36.5145 27° Northeast  Level FlightAware Approximate
09:29PM 83.9613 -35.9425 27° Northeast  Level FlightAware Approximate
09:30PM 84.0798 -35.3477 28° Northeast  Level FlightAware Approximate
09:31PM 84.1975 -34.7287 29° Northeast  Level FlightAware Approximate
09:32PM 84.3146 -34.0843 29° Northeast  Level FlightAware Approximate
09:33PM 84.4310 -33.4129 30° Northeast  Level FlightAware Approximate
09:34PM 84.5465 -32.7130 31° Northeast  Level FlightAware Approximate
09:35PM 84.6612 -31.9831 31° Northeast  Level FlightAware Approximate
09:36PM 84.7750 -31.2213 32° Northeast  Level FlightAware Approximate
09:37PM 84.8879 -30.4259 340° North  Level FlightAware Approximate
09:38PM 85.0089 -30.9328 33° Northeast  Level FlightAware Approximate
09:39PM 85.1201 -30.0695 34° Northeast  Level FlightAware Approximate
09:40PM 85.2301 -29.1662 35° Northeast  Level FlightAware Approximate
09:41PM 85.3388 -28.2207 36° Northeast  Level FlightAware Approximate
09:42PM 85.4462 -27.2303 37° Northeast  Level FlightAware Approximate
09:43PM 85.5522 -26.1926 38° Northeast  Level FlightAware Approximate
09:44PM 85.6567 -25.1046 39° Northeast  Level FlightAware Approximate
09:45PM 85.7596 -23.9635 40° Northeast  Level FlightAware Approximate
09:46PM 85.8607 -22.7663 41° Northeast  Level FlightAware Approximate
09:47PM 85.9599 -21.5099 43° Northeast  Level FlightAware Approximate
09:48PM 86.0570 -20.1910 43° Northeast  Level FlightAware Approximate
09:49PM 86.1531 -18.8229 46° Northeast  Level FlightAware Approximate
09:50PM 86.2448 -17.3548 47° Northeast  Level FlightAware Approximate
09:51PM 86.3338 -15.8144 49° Northeast  Level FlightAware Approximate
09:52PM 86.4201 -14.1986 51° Northeast  Level FlightAware Approximate
09:53PM 86.5034 -12.5046 52° Northeast  Level FlightAware Approximate
09:54PM 86.5836 -10.7296 54° Northeast  Level FlightAware Approximate
09:55PM 86.6602 -8.8713 56° Northeast  Level FlightAware Approximate
09:56PM 86.7333 -6.9279 58° Northeast  Level FlightAware Approximate
09:57PM 86.8024 -4.8982 60° Northeast  Level FlightAware Approximate
09:58PM 86.8673 -2.7817 62° Northeast  Level FlightAware Approximate
09:59PM 86.9278 -0.5789 64° Northeast  Level FlightAware Approximate
10:00PM 86.9836 1.7088 66° East  Level FlightAware Approximate
10:01PM 87.0343 4.0786 69° East  Level FlightAware Approximate
10:02PM 87.0799 6.5266 71° East  Level FlightAware Approximate
10:03PM 87.1200 9.0475 74° East  Level FlightAware Approximate
10:04PM 87.1544 11.6342 76° East  Level FlightAware Approximate
10:05PM 87.1828 14.2786 79° East  Level FlightAware Approximate
10:06PM 87.2051 16.9710 82° East  Level FlightAware Approximate
10:07PM 87.2212 19.7006 84° East  Level FlightAware Approximate
10:08PM 87.2309 22.4557 87° East  Level FlightAware Approximate
10:09PM 87.2342 25.2237 90° East  Level FlightAware Approximate
10:10PM 87.2310 27.9919 93° East  Level FlightAware Approximate
10:11PM 87.2214 30.7473 95° East  Level FlightAware Approximate
10:12PM 87.2055 33.4775 98° East  Level FlightAware Approximate
10:13PM 87.1833 36.1707 101° East  Level FlightAware Approximate
10:14PM 87.1549 38.8161 104° East  Level FlightAware Approximate
10:15PM 87.1207 41.4040 106° East  Level FlightAware Approximate
10:16PM 87.0807 43.9262 109° East  Level FlightAware Approximate
10:17PM 87.0353 46.3756 111° Southeast  Level FlightAware Approximate
10:18PM 86.9846 48.7470 113° Southeast  Level FlightAware Approximate
10:19PM 86.9289 51.0363 116° Southeast  Level FlightAware Approximate
10:20PM 86.8685 53.2408 118° Southeast  Level FlightAware Approximate
10:21PM 86.8032 55.3547 116° Southeast  Level Estimated
10:22PM 86.4087 66.2273 131° Southeast  Level FlightAware Approximate
10:23PM 86.3193 67.7955 131° Southeast  Level Estimated
10:24PM 86.2357 69.2597 134° Southeast  Level FlightAware Approximate
10:25PM 86.1413 70.6845 134° Southeast  Level Estimated
10:26PM 86.0427 72.1648 137° Southeast  Level FlightAware Approximate
10:27PM 85.9438 73.4519 136° Southeast  Level Estimated
10:28PM 85.8515 74.6622 140° Southeast  Level FlightAware Approximate
10:29PM 85.7488 75.8317 139° Southeast  Level Estimated
10:30PM 85.6418 77.0562 142° Southeast  Level FlightAware Approximate
10:31PM 85.5358 78.1145 141° Southeast  Level Estimated
10:32PM 85.4368 79.1183 144° Southeast  Level FlightAware Approximate
10:33PM 85.3280 80.0826 143° Southeast  Level Estimated
10:34PM 85.2146 81.1011 146° Southeast  Level FlightAware Approximate
10:35PM 85.1032 81.9769 145° Southeast  Level Estimated
10:36PM 84.9993 82.8154 148° Southeast  Level FlightAware Approximate
10:37PM 84.8858 83.6166 146° Southeast  Level Estimated
10:38PM 84.7677 84.4707 149° Southeast  Level FlightAware Approximate
10:39PM 84.6522 85.2018 148° Southeast  Level Estimated
10:40PM 84.5445 85.9085 151° Southeast  Level FlightAware Approximate
10:41PM 84.4274 86.5803 149° Southeast  Level Estimated
10:42PM 84.3055 87.3034 152° Southeast  Level FlightAware Approximate
10:43PM 84.1870 87.9193 151° Southeast  Level Estimated
10:44PM 84.0763 88.5206 153° Southeast  Level FlightAware Approximate
10:45PM 83.9565 89.0892 152° Southeast  Level Estimated
10:46PM 83.8316 89.7072 155° Southeast  Level FlightAware Approximate
10:47PM 83.7107 90.2310 153° Southeast  Level Estimated
10:48PM 83.5976 90.7475 156° South  Level FlightAware Approximate
10:49PM 83.4757 91.2332 154° Southeast  Level Estimated
10:50PM 83.3485 91.7662 157° South  Level FlightAware Approximate
10:51PM 83.2256 92.2157 155° Southeast  Level Estimated
10:52PM 83.1108 92.6634 158° South  Level FlightAware Approximate
10:53PM 82.9871 93.0819 156° South  Level Estimated
10:54PM 82.8568 93.5478 158° South  Level FlightAware Approximate
10:55PM 82.7323 93.9367 157° South  Level Estimated
10:56PM 82.6158 94.3252 159° South  Level FlightAware Approximate
10:57PM 82.4907 94.6888 158° South  Level Estimated
10:58PM 82.3736 95.0536 160° South  Level FlightAware Approximate
10:59PM 82.2479 95.3941 158° South  Level Estimated
11:00PM 82.1167 95.7740 161° South  Level FlightAware Approximate
11:01PM 81.9904 96.0923 159° South  Level Estimated
11:02PM 81.8722 96.4146 161° South  Level FlightAware Approximate
11:03PM 81.7455 96.7139 160° South  Level Estimated
11:04PM 81.6131 97.0506 162° South  Level FlightAware Approximate
11:05PM 81.4860 97.3313 160° South  Level Estimated
11:06PM 81.3668 97.6180 162° South  Level FlightAware Approximate
11:07PM 81.2393 97.8826 161° South  Level Estimated
11:08PM 81.1038 98.1880 163° South  Level FlightAware Approximate
11:09PM 80.9759 98.4369 161° South  Level Estimated
11:10PM 80.8560 98.6946 164° South  Level FlightAware Approximate
11:11PM 80.7277 98.9299 162° South  Level Estimated
11:12PM 80.5937 99.2006 164° South  Level FlightAware Approximate
11:13PM 80.4651 99.4227 162° South  Level Estimated
11:14PM 80.3445 99.6548 164° South  Level FlightAware Approximate
11:15PM 80.2157 99.8654 163° South  Level Estimated
11:16PM 80.0809 100.1097 165° South  Level FlightAware Approximate
11:17PM 79.9518 100.3090 163° South  Level Estimated
11:18PM 79.8307 100.5191 165° South  Level FlightAware Approximate
11:19PM 79.7013 100.7084 163° South  Level Estimated
11:20PM 79.5660 100.9301 166° South  Level FlightAware Approximate
11:21PM 79.4364 101.1097 164° South  Level Estimated
11:22PM 79.3081 101.3103 166° South  Level FlightAware Approximate
11:23PM 79.1783 101.4812 164° South  Level Estimated
11:24PM 79.0424 101.6819 166° South  Level FlightAware Approximate
11:25PM 78.9124 101.8443 165° South  Level Estimated
11:26PM 78.7903 102.0178 167° South  Level FlightAware Approximate
11:27PM 78.6601 102.1728 165° South  Level Estimated
11:28PM 78.5238 102.3565 167° South  Level FlightAware Approximate
11:29PM 78.3934 102.5042 165° South  Level Estimated
11:30PM 78.2710 102.6634 167° South  Level FlightAware Approximate
11:31PM 78.1405 102.8047 166° South  Level Estimated
11:32PM 78.0038 102.9735 168° South  Level FlightAware Approximate
11:33PM 77.8731 103.1084 166° South  Level Estimated
11:34PM 77.7504 103.2549 168° South  Level FlightAware Approximate
11:35PM 77.6196 103.3841 166° South  Level Estimated
11:36PM 77.4825 103.5399 168° South  Level FlightAware Approximate
11:37PM 77.3516 103.6634 166° South  Level Estimated
11:38PM 77.2286 103.7989 169° South  Level FlightAware Approximate
11:39PM 77.0975 103.9175 167° South  Level Estimated
11:40PM 76.9602 104.0616 169° South  Level FlightAware Approximate
11:41PM 76.8290 104.1752 167° South  Level Estimated
11:42PM 76.7057 104.3008 169° South  Level FlightAware Approximate
11:43PM 76.5744 104.4100 167° South  Level Estimated
11:44PM 76.4369 104.5438 169° South  Level FlightAware Approximate
11:45PM 76.3055 104.6485 167° South  Level Estimated
11:46PM 76.1717 104.7742 170° South  Level FlightAware Approximate
11:47PM 76.0402 104.8748 168° South  Level Estimated
11:48PM 75.9024 104.9995 170° South  Level FlightAware Approximate
11:49PM 75.7708 105.0961 168° South  Level Estimated
11:50PM 75.6471 105.2053 170° South  Level FlightAware Approximate
11:51PM 75.5155 105.2984 168° South  Level Estimated
11:52PM 75.3775 105.4148 170° South  Level FlightAware Approximate
11:53PM 75.2458 105.5044 168° South  Level Estimated
11:54PM 75.1219 105.6065 170° South  Level FlightAware Approximate
11:55PM 74.9901 105.6929 168° South  Level Estimated
11:56PM 74.8519 105.8019 171° South  Level FlightAware Approximate
11:57PM 74.7200 105.8852 168° South  Level Estimated
11:58PM 74.5882 105.9862 171° South  Level FlightAware Approximate
11:59PM 74.4563 106.0665 169° South  Level Estimated
12:00AM 74.3179 106.1687 171° South  Level FlightAware Approximate
12:01AM 74.1859 106.2462 169° South  Level Estimated
12:02AM 74.0617 106.3361 171° South  Level FlightAware Approximate
12:03AM 73.9296 106.4109 169° South  Level Estimated
12:04AM 73.7911 106.5071 171° South  Level FlightAware Approximate
12:05AM 73.6590 106.5794 169° South  Level Estimated
12:06AM 73.5347 106.6641 171° South  Level FlightAware Approximate
12:07AM 73.4025 106.7340 169° South  Level Estimated
12:08AM 73.2638 106.8247 172° South  Level FlightAware Approximate
12:09AM 73.1316 106.8923 169° South  Level Estimated
12:10AM 73.0071 106.9723 172° South  Level FlightAware Approximate
12:11AM 72.8748 107.0378 170° South  Level Estimated
12:12AM 72.7361 107.1234 172° South  Level FlightAware Approximate
12:13AM 72.6037 107.1868 170° South  Level Estimated
12:14AM 72.4792 107.2625 172° South  Level FlightAware Approximate
12:15AM 72.3468 107.3238 170° South  Level Estimated
12:16AM 72.2079 107.4050 172° South  Level FlightAware Approximate
12:17AM 72.0755 107.4644 170° South  Level Estimated
12:18AM 71.9508 107.5361 172° South  Level FlightAware Approximate
12:19AM 71.8183 107.5938 170° South  Level Estimated
12:20AM 71.6793 107.6708 172° South  Level FlightAware Approximate
12:21AM 71.5468 107.7266 170° South  Level Estimated
12:22AM 71.4221 107.7948 173° South  Level FlightAware Approximate
12:23AM 71.2895 107.8490 170° South  Level Estimated
12:24AM 71.1504 107.9221 173° South  Level FlightAware Approximate
12:25AM 71.0179 107.9748 170° South  Level Estimated
12:26AM 70.8930 108.0396 173° South  Level FlightAware Approximate
12:27AM 70.7604 108.0907 171° South  Level Estimated
12:28AM 70.6212 108.1603 173° South  Level FlightAware Approximate
12:29AM 70.4886 108.2099 171° South  Level Estimated
12:30AM 70.3636 108.2717 173° South  Level FlightAware Approximate
12:31AM 70.2310 108.3199 171° South  Level Estimated
12:32AM 70.0917 108.3862 173° South  Level FlightAware Approximate
12:33AM 69.9590 108.4331 171° South  Level Estimated
12:34AM 69.8340 108.4920 173° South  Level FlightAware Approximate
12:35AM 69.7012 108.5376 171° South  Level Estimated
12:36AM 69.5619 108.6009 173° South  Level FlightAware Approximate
12:37AM 69.4291 108.6452 171° South  Level Estimated
12:38AM 69.3041 108.7016 173° South  Level FlightAware Approximate
12:39AM 69.1713 108.7447 171° South  Level Estimated
12:40AM 69.0319 108.8052 174° South  Level FlightAware Approximate
12:41AM 68.8990 108.8472 171° South  Level Estimated
12:42AM 68.7739 108.9011 174° South  Level FlightAware Approximate
12:43AM 68.6411 108.9420 171° South  Level Estimated
12:44AM 68.5016 108.9999 174° South  Level FlightAware Approximate
12:45AM 68.3687 109.0397 171° South  Level Estimated
12:46AM 68.2436 109.0913 174° South  Level FlightAware Approximate
12:47AM 68.1107 109.1301 172° South  Level Estimated
12:48AM 67.9711 109.1856 174° South  Level FlightAware Approximate
12:49AM 67.8382 109.2234 171° South  Level Estimated
12:50AM 67.7130 109.2730 174° South  Level FlightAware Approximate
12:51AM 67.5800 109.3098 172° South  Level Estimated
12:52AM 67.4404 109.3631 174° South  Level FlightAware Approximate
12:53AM 67.3075 109.3989 172° South  Level Estimated
12:54AM 67.1822 109.4465 174° South  Level FlightAware Approximate
12:55AM 67.0492 109.4815 172° South  Level Estimated
12:56AM 66.9096 109.5327 174° South  Level FlightAware Approximate
12:57AM 66.7766 109.5668 172° South  Level Estimated
12:58AM 66.6512 109.6126 174° South  Level FlightAware Approximate
12:59AM 66.5182 109.6459 172° South  Level Estimated
01:00AM 66.3929 109.6909 174° South  Level FlightAware Approximate
01:01AM 66.2598 109.7234 172° South  Level Estimated
01:02AM 66.1201 109.7718 174° South  Level FlightAware Approximate
01:03AM 65.9871 109.8034 172° South  Level Estimated
01:04AM 65.8617 109.8468 175° South  Level FlightAware Approximate
01:05AM 65.7286 109.8777 172° South  Level Estimated
01:06AM 65.5888 109.9244 175° South  Level FlightAware Approximate
01:07AM 65.4557 109.9545 172° South  Level Estimated
01:08AM 65.3303 109.9964 175° South  Level FlightAware Approximate
01:09AM 65.1972 110.0258 172° South  Level Estimated
01:10AM 65.0574 110.0708 175° South  Level FlightAware Approximate
01:11AM 64.9243 110.0996 172° South  Level Estimated
01:12AM 64.7988 110.1400 175° South  Level FlightAware Approximate
01:13AM 64.6657 110.1681 172° South  Level Estimated
01:14AM 64.5258 110.2116 175° South  Level FlightAware Approximate
01:15AM 64.3927 110.2391 172° South  Level Estimated
01:16AM 64.2672 110.2781 175° South  Level FlightAware Approximate
01:17AM 64.1340 110.3049 172° South  Level Estimated
01:18AM 63.9941 110.3470 175° South  Level FlightAware Approximate
01:19AM 63.8610 110.3732 172° South  Level Estimated
01:20AM 63.7355 110.4110 175° South  Level FlightAware Approximate
01:21AM 63.6023 110.4366 173° South  Level Estimated
01:22AM 63.4623 110.4773 175° South  Level FlightAware Approximate
01:23AM 63.3291 110.5024 173° South  Level Estimated
01:24AM 63.2036 110.5389 175° South  Level FlightAware Approximate
01:25AM 63.0704 110.5635 173° South  Level Estimated
01:26AM 62.9304 110.6029 175° South  Level FlightAware Approximate
01:27AM 62.7972 110.6268 173° South  Level Estimated
01:28AM 62.6716 110.6623 175° South  Level FlightAware Approximate
01:29AM 62.5384 110.6858 173° South  Level Estimated
01:30AM 62.3984 110.7239 175° South  Level FlightAware Approximate
01:31AM 62.2651 110.7469 173° South  Level Estimated
01:32AM 62.1395 110.7813 175° South  Level FlightAware Approximate
01:33AM 62.0062 110.8037 173° South  Level Estimated
01:34AM 61.8662 110.8408 176° South  Level FlightAware Approximate
01:35AM 61.7330 110.8627 173° South  Level Estimated
01:36AM 61.6073 110.8962 176° South  Level FlightAware Approximate
01:37AM 61.4740 110.9177 173° South  Level Estimated
01:38AM 61.3340 110.9537 176° South  Level FlightAware Approximate
01:39AM 61.2007 110.9747 173° South  Level Estimated
01:40AM 61.0750 111.0072 176° South  Level FlightAware Approximate
01:41AM 60.9417 111.0278 173° South  Level Estimated
01:42AM 60.8017 111.0628 176° South  Level FlightAware Approximate
01:43AM 60.6684 111.0829 173° South  Level Estimated
01:44AM 60.5427 111.1145 176° South  Level FlightAware Approximate
01:45AM 60.4094 111.1343 173° South  Level Estimated
01:46AM 60.2693 111.1683 176° South  Level FlightAware Approximate
01:47AM 60.1359 111.1876 173° South  Level Estimated
01:48AM 60.0102 111.2184 176° South  Level FlightAware Approximate
01:49AM 59.8769 111.2373 173° South  Level Estimated
01:50AM 59.7368 111.2704 176° South  Level FlightAware Approximate
01:51AM 59.6034 111.2889 173° South  Level Estimated
01:52AM 59.4777 111.3189 176° South  Level FlightAware Approximate
01:53AM 59.3443 111.3371 173° South  Level Estimated
01:54AM 59.2042 111.3694 176° South  Level FlightAware Approximate
01:55AM 59.0709 111.3871 173° South  Level Estimated
01:56AM 58.9451 111.4164 176° South  Level FlightAware Approximate
01:57AM 58.8117 111.4338 173° South  Level Estimated
01:58AM 58.6716 111.4653 176° South  Level FlightAware Approximate
01:59AM 58.5382 111.4823 173° South  Level Estimated
02:00AM 58.4124 111.5109 176° South  Level FlightAware Approximate
02:01AM 58.2790 111.5276 174° South  Level Estimated
02:02AM 58.1249 111.5602 176° South  Level FlightAware Approximate
02:03AM 57.9915 111.5765 173° South  Level Estimated
02:04AM 57.8657 111.6036 176° South  Level FlightAware Approximate
02:05AM 57.7323 111.6196 174° South  Level Estimated
02:06AM 57.5921 111.6487 176° South  Level FlightAware Approximate
02:07AM 57.4587 111.6644 174° South  Level Estimated
02:08AM 57.3328 111.6909 176° South  Level FlightAware Approximate
02:09AM 57.1994 111.7063 174° South  Level Estimated
02:10AM 57.0592 111.7347 176° South  Level FlightAware Approximate
02:11AM 56.9257 111.7498 174° South  Level Estimated
02:12AM 56.7999 111.7757 177° South  Level FlightAware Approximate
02:13AM 56.6665 111.7905 174° South  Level Estimated
02:14AM 56.5262 111.8183 177° South  Level FlightAware Approximate
02:15AM 56.3927 111.8328 174° South  Level Estimated
02:16AM 56.2669 111.8581 177° South  Level FlightAware Approximate
02:17AM 56.1334 111.8723 174° South  Level Estimated
02:18AM 55.9932 111.8995 177° South  Level FlightAware Approximate
02:19AM 55.8597 111.9135 174° South  Level Estimated
02:20AM 55.7234 111.9400 177° South  Level FlightAware Approximate
02:21AM 55.5900 111.9536 174° South  Level Estimated
02:22AM 55.4498 111.9816 177° South  Level FlightAware Approximate
02:23AM 55.3163 111.9950 173° South  Level Estimated
02:24AM 55.1905 112.0205 177° South  Level FlightAware Approximate
02:25AM 55.0570 112.0336 174° South  Level Estimated
02:26AM 54.9168 112.0610 177° South  Level FlightAware Approximate
02:27AM 54.7833 112.0738 173° South  Level Estimated
02:28AM 54.6574 112.0988 177° South  Level FlightAware Approximate
02:29AM 54.5240 112.1115 174° South  Level Estimated
02:30AM 54.3837 112.1383 177° South  Level FlightAware Approximate
02:31AM 54.2502 112.1506 173° South  Level Estimated
02:32AM 54.1244 112.1752 177° South  Level FlightAware Approximate
02:33AM 53.9909 112.1873 174° South  Level Estimated
02:34AM 53.8505 112.2133 177° South  Level FlightAware Approximate
02:35AM 53.7170 112.2252 174° South  Level Estimated
02:36AM 53.5911 112.2489 177° South  Level FlightAware Approximate
02:37AM 53.4576 112.2606 174° South  Level Estimated
02:38AM 53.3173 112.2860 177° South  Level FlightAware Approximate
02:39AM 53.1838 112.2974 174° South  Level Estimated
02:40AM 53.0579 112.3208 177° South  Level FlightAware Approximate
02:41AM 52.9244 112.3319 174° South  Level Estimated
02:42AM 52.7841 112.3570 177° South  Level FlightAware Approximate
02:43AM 52.6506 112.3679 174° South  Level Estimated
02:44AM 52.5247 112.3908 177° South  Level FlightAware Approximate
02:45AM 52.3912 112.4015 174° South  Level Estimated
02:46AM 52.2508 112.4262 177° South  Level FlightAware Approximate
02:47AM 52.1173 112.4366 174° South  Level Estimated
02:48AM 51.9914 112.4592 177° South  Level FlightAware Approximate
02:49AM 51.8579 112.4695 174° South  Level Estimated
02:50AM 51.7175 112.4937 177° South  Level FlightAware Approximate
02:51AM 51.5840 112.5038 174° South  Level Estimated
02:52AM 51.4468 112.5274 177° South  Level FlightAware Approximate
02:53AM 51.3133 112.5372 174° South  Level Estimated
02:54AM 51.1730 112.5610 177° South  Level FlightAware Approximate
02:55AM 51.0394 112.5706 174° South  Level Estimated
02:56AM 50.9135 112.5925 177° South  Level FlightAware Approximate
02:57AM 50.7799 112.6019 174° South  Level Estimated
02:58AM 50.6540 112.6237 177° South  Level FlightAware Approximate
02:59AM 50.5204 112.6329 174° South  Level Estimated
03:00AM 50.3801 112.6562 178° South  Level FlightAware Approximate
03:01AM 50.2465 112.6652 174° South  Level Estimated
03:02AM 50.1205 112.6866 178° South  Level FlightAware Approximate
03:03AM 49.9870 112.6955 174° South  Level Estimated
03:04AM 49.8466 112.7184 178° South  Level FlightAware Approximate
03:05AM 49.7131 112.7271 174° South  Level Estimated
03:06AM 49.5871 112.7482 178° South  Level FlightAware Approximate
03:07AM 49.4535 112.7567 174° South  Level Estimated
03:08AM 49.3131 112.7793 178° South  Level FlightAware Approximate
03:09AM 49.1796 112.7876 174° South  Level Estimated
03:10AM 49.0536 112.8084 178° South  Level FlightAware Approximate
03:11AM 48.9200 112.8165 174° South  Level Estimated
03:12AM 48.7796 112.8389 178° South  Level FlightAware Approximate
03:13AM 48.6461 112.8468 174° South  Level Estimated
03:14AM 48.5201 112.8674 178° South  Level FlightAware Approximate
03:15AM 48.3865 112.8751 174° South  Level Estimated
03:16AM 48.2461 112.8972 178° South  Level FlightAware Approximate
03:17AM 48.1125 112.9047 174° South  Level Estimated
03:18AM 47.9865 112.9252 178° South  Level FlightAware Approximate
03:19AM 47.8530 112.9325 174° South  Level Estimated
03:20AM 47.7125 112.9544 178° South  Level FlightAware Approximate
03:21AM 47.5789 112.9615 174° South  Level Estimated
03:22AM 47.4529 112.9817 178° South  Level FlightAware Approximate
03:23AM 47.3194 112.9887 174° South  Level Estimated
03:24AM 47.1789 113.0103 178° South  Level FlightAware Approximate
03:25AM 47.0453 113.0171 174° South  Level Estimated
03:26AM 46.9193 113.0371 178° South  Level FlightAware Approximate
03:27AM 46.7858 113.0438 174° South  Level Estimated
03:28AM 46.6453 113.0652 178° South  Level FlightAware Approximate
03:29AM 46.5117 113.0716 174° South  Level Estimated
03:30AM 46.3857 113.0915 178° South  Level FlightAware Approximate
03:31AM 46.2521 113.0978 174° South  Level Estimated
03:32AM 46.1117 113.1189 178° South  Level FlightAware Approximate
03:33AM 45.9781 113.1251 174° South  Level Estimated
03:34AM 45.8521 113.1447 178° South  Level FlightAware Approximate
03:35AM 45.7184 113.1507 174° South  Level Estimated
03:36AM 45.5780 113.1717 178° South  Level FlightAware Approximate
03:37AM 45.4444 113.1775 174° South  Level Estimated
03:38AM 45.3184 113.1970 178° South  Level FlightAware Approximate
03:39AM 45.1848 113.2026 174° South  Level Estimated
03:40AM 45.0443 113.2235 178° South  Level FlightAware Approximate
03:41AM 44.9107 113.2289 174° South  Level Estimated
03:42AM 44.7847 113.2483 178° South  Level FlightAware Approximate
03:43AM 44.6511 113.2536 184° South  Level Estimated
03:44AM 44.5065 113.2407 178° South  Level FlightAware Approximate
03:45AM 44.3729 113.2461 185° South  Level Estimated
03:46AM 44.2464 113.2315 178° South  Level FlightAware Approximate
03:47AM 44.1127 113.2370 184° South  Level Estimated
03:48AM 43.9717 113.2219 178° South  Level FlightAware Approximate
03:49AM 43.8381 113.2275 185° South  Level Estimated
03:50AM 43.7116 113.2129 178° South  Level FlightAware Approximate
03:51AM 43.5780 113.2186 184° South  Level Estimated
03:52AM 43.4370 113.2035 178° South  Level FlightAware Approximate
03:53AM 43.3034 113.2093 185° South  Level Estimated
03:54AM 43.1768 113.1946 178° South  Level FlightAware Approximate
03:55AM 43.0432 113.2006 185° South  Level Estimated
03:56AM 42.9022 113.1853 178° South  Level FlightAware Approximate
03:57AM 42.7686 113.1914 185° South  Level Estimated
03:58AM 42.6421 113.1766 178° South  Level FlightAware Approximate
03:59AM 42.5085 113.1828 185° South  Level Estimated
04:00AM 42.3674 113.1675 178° South  Level FlightAware Approximate
04:01AM 42.2338 113.1739 185° South  Level Estimated
04:02AM 42.1073 113.1589 178° South  Level FlightAware Approximate
04:03AM 41.9737 113.1654 182° South  Level Estimated
04:04AM 41.8203 113.1584 178° South  Level FlightAware Approximate
04:05AM 41.6867 113.1649 133° Southeast  Level Estimated
04:06AM 41.5855 113.3088 178° South  Level FlightAware Approximate
04:07AM 41.4519 113.3140 135° Southeast  Level Estimated
04:08AM 41.3375 113.4663 179° South  Level FlightAware Approximate
04:09AM 41.2038 113.4703 133° Southeast  Level Estimated
04:10AM 41.1023 113.6145 179° South  Level FlightAware Approximate
04:11AM 40.9687 113.6171 135° Southeast  Level Estimated
04:12AM 40.8539 113.7697 180° South  Level FlightAware Approximate
04:13AM 40.7202 113.7710 133° Southeast  Level Estimated
04:14AM 40.6183 113.9157 180° South  Level FlightAware Approximate
04:15AM 40.4846 113.9157 137° Southeast  Level Estimated
04:16AM 40.3589 114.0682 180° South  Level FlightAware Approximate
04:17AM 40.2252 114.0668 143° Southeast  Level Estimated
04:18AM 40.1122 114.1768 181° South  Level FlightAware Approximate
04:19AM 39.9786 114.1744 145° Southeast  Level Estimated
04:20AM 39.8518 114.2907 181° South  Level FlightAware Approximate
04:21AM 39.7181 114.2872 143° Southeast  Level Estimated
04:22AM 39.6049 114.3977 182° South  Level FlightAware Approximate
04:23AM 39.4713 114.3932 145° Southeast  Level Estimated
04:24AM 39.3442 114.5099 182° South  Level FlightAware Approximate
04:25AM 39.2106 114.5042 147° Southeast  Level Estimated
04:26AM 39.0901 114.6050 182° South  Level FlightAware Approximate
04:27AM 38.9566 114.5984 168° South  Level Estimated
04:28AM 38.8166 114.6368 182° South  Level FlightAware Approximate
04:29AM 38.6830 114.6298 167° South  Level Estimated
04:30AM 38.5574 114.6667 182° South  Level FlightAware Approximate
04:31AM 38.4238 114.6593 168° South  Level Estimated
04:32AM 38.2838 114.6981 183° South  Level FlightAware Approximate
04:33AM 38.1502 114.6902 167° South  Level Estimated
04:34AM 38.0219 114.7283 183° South  Level FlightAware Approximate
04:35AM 37.8884 114.7201 167° South  Level Estimated
04:36AM 37.7483 114.7597 183° South  Level FlightAware Approximate
04:37AM 37.6148 114.7511 166° South  Level Estimated
04:38AM 37.4891 114.7892 183° South  Level FlightAware Approximate
04:39AM 37.3557 114.7802 167° South  Level Estimated
04:40AM 37.2155 114.8202 183° South  Level FlightAware Approximate
04:41AM 37.0821 114.8107 166° South  Level Estimated
04:42AM 36.9563 114.8493 183° South  Level FlightAware Approximate
04:43AM 36.8229 114.8394 167° South  Level Estimated
04:44AM 36.6827 114.8798 184° South  Level FlightAware Approximate
04:45AM 36.5493 114.8694 166° South  Level Estimated
04:46AM 36.4235 114.9086 184° South  Level FlightAware Approximate
04:47AM 36.2901 114.8977 185° South  Level Estimated
04:48AM 36.1496 114.8811 184° South  Level FlightAware Approximate
04:49AM 36.0162 114.8704 193° South  Level Estimated
04:50AM 35.8920 114.8358 184° South  Level FlightAware Approximate
04:51AM 35.7586 114.8253 192° South  Level Estimated
04:52AM 35.6200 114.7882 184° South  Level FlightAware Approximate
04:53AM 35.4866 114.7781 193° South  Level Estimated
04:54AM 35.3624 114.7434 183° South  Level FlightAware Approximate
04:55AM 35.2289 114.7337 192° South  Level Estimated
04:56AM 35.0904 114.6964 183° South  Level FlightAware Approximate
04:57AM 34.9569 114.6871 193° South  Level Estimated
04:58AM 34.8326 114.6522 183° South  Level FlightAware Approximate
04:59AM 34.6992 114.6433 193° South  Level Estimated
05:00AM 34.5749 114.6083 183° South  Level FlightAware Approximate
05:01AM 34.4414 114.5997 193° South  Level Estimated
05:02AM 34.3029 114.5622 183° South  Level FlightAware Approximate
05:03AM 34.1694 114.5540 193° South  Level Estimated
05:04AM 34.0451 114.5188 183° South  Level FlightAware Approximate
05:05AM 33.9116 114.5111 193° South  Level Estimated
05:06AM 33.7730 114.4733 183° South  Level FlightAware Approximate
05:07AM 33.6395 114.4660 193° South  Level Estimated
05:08AM 33.5042 114.4287 182° South  Level FlightAware Approximate
05:09AM 33.3706 114.4219 193° South  Level Estimated
05:10AM 33.2320 114.3840 182° South  Level FlightAware Approximate
05:11AM 33.0985 114.3776 194° South  Level Estimated
05:12AM 32.9742 114.3418 182° South  Level FlightAware Approximate
05:13AM 32.8406 114.3359 193° South  Level Estimated
05:14AM 32.7020 114.2976 182° South  Level FlightAware Approximate
05:15AM 32.5684 114.2922 194° South  Level Estimated
05:16AM 32.4442 114.2560 182° South  Level FlightAware Approximate
05:17AM 32.3106 114.2510 193° South  Level Estimated
05:18AM 32.1720 114.2123 182° South  Level FlightAware Approximate
05:19AM 32.0383 114.2078 194° South  Level Estimated
05:20AM 31.9141 114.1711 181° South  Level FlightAware Approximate
05:21AM 31.7805 114.1672 194° South  Level Estimated
05:22AM 31.6418 114.1279 181° South  Level FlightAware Approximate
05:23AM 31.5082 114.1246 194° South  Level Estimated
05:24AM 31.3839 114.0872 181° South  Level FlightAware Approximate
05:25AM 31.2503 114.0844 194° South  Level Estimated
05:26AM 31.1117 114.0445 181° South  Level FlightAware Approximate
05:27AM 30.9780 114.0423 195° South  Level Estimated
05:28AM 30.8537 114.0042 181° South  Level FlightAware Approximate
05:29AM 30.7201 114.0027 194° South  Level Estimated
05:30AM 30.5814 113.9620 180° South  Level FlightAware Approximate
05:31AM 30.4478 113.9612 195° South  Level Estimated
05:32AM 30.3235 113.9222 180° South  Level FlightAware Approximate
05:33AM 30.1898 113.9221 195° South  Level Estimated
05:34AM 30.0512 113.8804 180° South  Level FlightAware Approximate
05:35AM 29.9175 113.8810 196° South  Level Estimated
05:36AM 29.7932 113.8410 179° South  Level FlightAware Approximate
05:37AM 29.6595 113.8424 195° South  Level Estimated
05:38AM 29.5208 113.7997 179° South  Level FlightAware Approximate
05:39AM 29.3872 113.8019 196° South  Level Estimated
05:40AM 29.2628 113.7607 179° South  Level FlightAware Approximate
05:41AM 29.1292 113.7639 196° South  Level Estimated
05:42AM 28.9905 113.7198 178° South  Level FlightAware Approximate
05:43AM 28.8568 113.7239 197° South  Level Estimated
05:44AM 28.7324 113.6813 178° South  Level FlightAware Approximate
05:45AM 28.5988 113.6864 196° South  Level Estimated
05:46AM 28.4601 113.6407 178° South  Level FlightAware Approximate
05:47AM 28.3265 113.6470 197° South  Level Estimated
05:48AM 28.2020 113.6026 177° South  Level FlightAware Approximate
05:49AM 28.0685 113.6100 197° South  Level Estimated
05:50AM 27.9296 113.5625 177° South  Level FlightAware Approximate
05:51AM 27.7961 113.5712 198° South  Level Estimated
05:52AM 27.6715 113.5247 176° South  Level FlightAware Approximate
05:53AM 27.5381 113.5348 163° South  Level Estimated
05:54AM 27.3934 113.5850 177° South  Level FlightAware Approximate
05:55AM 27.2600 113.5940 153° Southeast  Level Estimated
05:56AM 27.1422 113.6615 177° South  Level FlightAware Approximate
05:57AM 27.0087 113.6687 154° Southeast  Level Estimated
05:58AM 26.8770 113.7419 178° South  Level FlightAware Approximate
05:59AM 26.7434 113.7471 152° Southeast  Level Estimated
06:00AM 26.6257 113.8177 179° South  Level FlightAware Approximate
06:01AM 26.4921 113.8208 152° Southeast  Level Estimated
06:02AM 26.3605 113.8973 180° South  Level FlightAware Approximate
06:03AM 26.2268 113.8979 150° Southeast  Level Estimated
06:04AM 26.1091 113.9725 181° South  Level FlightAware Approximate
06:05AM 25.9754 113.9704 152° Southeast  Level Estimated
06:06AM 25.8349 114.0532 182° South  Level FlightAware Approximate
06:07AM 25.7013 114.0478 149° Southeast  Level Estimated
06:08AM 25.5832 114.1266 183° South  Level FlightAware Approximate
06:09AM 25.4498 114.1178 150° Southeast  Level Estimated
06:10AM 25.3175 114.2038 185° South  Level FlightAware Approximate
06:11AM 25.1843 114.1907 155° Southeast  Level Estimated
06:12AM 25.0574 114.2574 187° South  Level FlightAware Approximate
06:13AM 24.9247 114.2405 196° South  Level Estimated
06:14AM 24.7880 114.1986 186° South  Level FlightAware Approximate
06:15AM 24.6551 114.1831 197° South  Level Estimated
06:16AM 24.5327 114.1431 185° South  Level FlightAware Approximate
06:17AM 24.3996 114.1292 207° Southwest  Level Estimated
06:18AM 24.2722 114.0576 184° South  Level FlightAware Approximate
06:19AM 24.1388 114.0478 236° Southwest  Level Estimated
06:20AM 24.0521 113.9054 180° South  Level FlightAware Approximate
06:21AM 23.9185 113.9062 236° Southwest  Level Estimated
06:22AM 23.8196 113.7454 174° South  Level FlightAware Approximate
06:23AM 23.6867 113.7604 240° Southwest  Level Estimated
06:24AM 23.5992 113.5942 167° South  Level FlightAware Approximate
06:25AM 23.4690 113.6269 240° Southwest  Level Estimated
06:26AM 23.3636 113.4293 157° South  Level FlightAware Approximate
06:27AM 23.2406 113.4863 235° Southwest  Level Estimated
06:28AM 23.1255 113.3088 145° Southeast  Level FlightAware Approximate
06:29AM 23.0154 113.3910 246° West  Level Estimated
06:30AM 22.9014 113.1176 129° Southeast  Level FlightAware Approximate
06:31AM 22.8179 113.2308 205° Southwest  Level Estimated
06:32AM 22.7245 113.1837 121° Southeast  Level FlightAware Approximate
06:33AM 22.6547 113.3073 122° Southeast  Level Estimated
06:34AM 22.5807 113.4373 116° Southeast  Level FlightAware Approximate
06:35AM 22.5212 113.5669 116° Southeast  Level FlightAware Approximate
06:36AM 22.4615 113.6964 117° Southeast  Level FlightAware Approximate
06:37AM 22.4017 113.8257 117° Southeast  Level FlightAware Approximate
06:38AM 22.3418 113.9550 117° Southeast  Level FlightAware Approximate
06:39AM 22.2818 114.0841 72° East  Level FlightAware Approximate
06:40AM 22.3167 114.2000 268° West  Level FlightAware Approximate
06:41AM 22.3128 114.0556 213° Southwest  Level Estimated
06:42AM 22.1991 113.9762 63° Northeast  Level FlightAware Approximate
06:43AM 22.2607 114.1043 58° Northeast  Level FlightAware Approximate
06:44AM 22.3167 114.2000 268° West  Level FlightAware Approximate
06:45AM 22.3128 114.0556 268° West  Level Estimated
06:46AM 22.3088 113.9111 102° East  Level Estimated
06:47AM 22.2799 114.0522 78° East  Level FlightAware Approximate
06:48AM 22.3062 114.1825 271° West  Level FlightAware Approximate
06:49AM 22.3077 114.0380 87° East  Level Estimated
06:50AM 22.3167 114.2000 268° West  Level FlightAware Approximate
06:51AM 22.3128 114.0556 88° East  Level Estimated
06:52AM 22.3167 114.2000 268° West  Level FlightAware Approximate
06:53AM 22.3128 114.0556 88° East  Level Estimated
06:54AM 22.3167 114.2000 268° West  Level FlightAware Approximate
06:55AM 22.3128 114.0556 88° East  Level Estimated
06:56AM 22.3167 114.2000 268° West  Level FlightAware Approximate
06:57AM 22.3128 114.0556 88° East  Level Estimated
06:58AM 22.3167 114.2000 268° West  Level FlightAware Approximate
06:59AM 22.3128 114.0556 88° East  Level Estimated
07:00AM 22.3167 114.2000 268° West  Level FlightAware Approximate
07:01AM 22.3128 114.0556 88° East  Level Estimated
07:02AM 22.3167 114.2000 268° West  Level FlightAware Approximate
07:03AM 22.3128 114.0556 88° East  Level Estimated
07:04AM 22.3167 114.2000 268° West  Level FlightAware Approximate
07:05AM 22.3128 114.0556 88° East  Level Estimated
07:06AM 22.3167 114.2000 88° East  Level FlightAware Approximate